sensor_id;sensor_type;location;lat;lon;timestamp;pressure;altitude;pressure_sealevel;temperature;humidity
37068;BME280;22982;42.848;25.468;2022-12-07T00:04:54;96233.28;;;0.37;100.00
37068;BME280;22982;42.848;25.468;2022-12-07T00:09:56;96268.69;;;0.73;100.00
37068;BME280;22982;42.848;25.468;2022-12-07T00:14:59;96262.25;;;0.92;100.00
37068;BME280;22982;42.848;25.468;2022-12-07T00:20:01;96271.25;;;0.73;100.00
37068;BME280;22982;42.848;25.468;2022-12-07T00:25:04;96264.00;;;0.90;100.00
37068;BME280;22982;42.848;25.468;2022-12-07T00:30:06;96284.13;;;1.13;100.00
37068;BME280;22982;42.848;25.468;2022-12-07T00:35:09;96262.53;;;1.18;100.00
37068;BME280;22982;42.848;25.468;2022-12-07T00:40:11;96286.41;;;1.27;100.00
37068;BME280;22982;42.848;25.468;2022-12-07T00:45:14;96292.03;;;1.45;100.00
37068;BME280;22982;42.848;25.468;2022-12-07T00:50:16;96288.84;;;1.68;100.00
37068;BME280;22982;42.848;25.468;2022-12-07T00:55:19;96286.25;;;1.69;100.00
37068;BME280;22982;42.848;25.468;2022-12-07T01:00:21;96282.09;;;1.62;100.00
37068;BME280;22982;42.848;25.468;2022-12-07T01:05:23;96284.69;;;1.62;100.00
37068;BME280;22982;42.848;25.468;2022-12-07T01:10:26;96285.75;;;1.53;100.00
37068;BME280;22982;42.848;25.468;2022-12-07T01:15:28;96264.88;;;1.63;100.00
37068;BME280;22982;42.848;25.468;2022-12-07T01:20:30;96248.50;;;1.62;100.00
37068;BME280;22982;42.848;25.468;2022-12-07T01:25:32;96264.31;;;1.50;100.00
37068;BME280;22982;42.848;25.468;2022-12-07T01:30:35;96258.88;;;1.61;100.00
37068;BME280;22982;42.848;25.468;2022-12-07T01:35:37;96251.53;;;1.80;100.00
37068;BME280;22982;42.848;25.468;2022-12-07T01:40:39;96239.16;;;1.91;100.00
37068;BME280;22982;42.848;25.468;2022-12-07T01:45:41;96233.97;;;1.91;100.00
37068;BME280;22982;42.848;25.468;2022-12-07T01:50:45;96238.06;;;2.00;100.00
37068;BME280;22982;42.848;25.468;2022-12-07T01:55:51;96218.44;;;1.92;100.00
37068;BME280;22982;42.848;25.468;2022-12-07T02:00:54;96210.31;;;2.06;100.00
37068;BME280;22982;42.848;25.468;2022-12-07T02:05:57;96225.72;;;2.41;100.00
37068;BME280;22982;42.848;25.468;2022-12-07T02:11:03;96206.66;;;2.14;100.00
37068;BME280;22982;42.848;25.468;2022-12-07T02:37:40;96225.06;;;2.64;100.00
37068;BME280;22982;42.848;25.468;2022-12-07T02:42:47;96208.00;;;2.57;100.00
37068;BME280;22982;42.848;25.468;2022-12-07T02:47:53;96211.41;;;2.59;100.00
37068;BME280;22982;42.848;25.468;2022-12-07T02:52:57;96218.34;;;2.57;100.00
37068;BME280;22982;42.848;25.468;2022-12-07T03:03:10;96201.81;;;2.31;100.00
37068;BME280;22982;42.848;25.468;2022-12-07T03:13:30;96223.75;;;2.49;100.00
37068;BME280;22982;42.848;25.468;2022-12-07T03:18:56;96219.66;;;2.40;100.00
37068;BME280;22982;42.848;25.468;2022-12-07T03:24:06;96225.75;;;2.39;100.00
37068;BME280;22982;42.848;25.468;2022-12-07T03:29:22;96210.28;;;2.38;100.00
37068;BME280;22982;42.848;25.468;2022-12-07T03:45:42;96229.50;;;2.59;100.00
37068;BME280;22982;42.848;25.468;2022-12-07T03:51:13;96214.94;;;2.55;100.00
37068;BME280;22982;42.848;25.468;2022-12-07T03:56:20;96204.84;;;2.75;100.00
37068;BME280;22982;42.848;25.468;2022-12-07T04:01:24;96216.13;;;2.73;100.00
37068;BME280;22982;42.848;25.468;2022-12-07T04:06:26;96214.97;;;2.83;100.00
37068;BME280;22982;42.848;25.468;2022-12-07T04:11:28;96207.63;;;2.69;100.00
37068;BME280;22982;42.848;25.468;2022-12-07T04:16:30;96183.56;;;2.65;100.00
37068;BME280;22982;42.848;25.468;2022-12-07T04:21:33;96186.91;;;2.97;100.00
37068;BME280;22982;42.848;25.468;2022-12-07T04:26:35;96183.31;;;3.01;100.00
37068;BME280;22982;42.848;25.468;2022-12-07T04:31:38;96202.09;;;3.08;100.00
37068;BME280;22982;42.848;25.468;2022-12-07T04:36:41;96193.59;;;3.04;100.00
37068;BME280;22982;42.848;25.468;2022-12-07T04:41:44;96187.56;;;3.04;100.00
37068;BME280;22982;42.848;25.468;2022-12-07T04:46:46;96190.59;;;3.17;100.00
37068;BME280;22982;42.848;25.468;2022-12-07T04:51:49;96193.94;;;3.47;100.00
37068;BME280;22982;42.848;25.468;2022-12-07T04:56:51;96196.59;;;3.71;100.00
37068;BME280;22982;42.848;25.468;2022-12-07T05:01:54;96178.78;;;3.61;100.00
37068;BME280;22982;42.848;25.468;2022-12-07T05:06:56;96166.97;;;3.78;100.00
37068;BME280;22982;42.848;25.468;2022-12-07T05:11:58;96182.25;;;3.86;100.00
37068;BME280;22982;42.848;25.468;2022-12-07T05:17:00;96157.25;;;3.83;100.00
37068;BME280;22982;42.848;25.468;2022-12-07T05:22:02;96162.38;;;3.84;100.00
37068;BME280;22982;42.848;25.468;2022-12-07T05:27:05;96166.97;;;3.78;100.00
37068;BME280;22982;42.848;25.468;2022-12-07T05:32:07;96156.47;;;3.81;100.00
37068;BME280;22982;42.848;25.468;2022-12-07T05:37:09;96165.66;;;3.90;100.00
37068;BME280;22982;42.848;25.468;2022-12-07T05:42:12;96163.81;;;3.93;100.00
37068;BME280;22982;42.848;25.468;2022-12-07T05:47:15;96163.81;;;3.93;100.00
37068;BME280;22982;42.848;25.468;2022-12-07T05:52:17;96156.78;;;4.20;100.00
37068;BME280;22982;42.848;25.468;2022-12-07T05:57:19;96147.16;;;4.22;100.00
37068;BME280;22982;42.848;25.468;2022-12-07T06:02:21;96162.59;;;4.27;100.00
37068;BME280;22982;42.848;25.468;2022-12-07T06:07:24;96159.88;;;4.07;100.00
37068;BME280;22982;42.848;25.468;2022-12-07T06:12:26;96158.81;;;4.36;100.00
37068;BME280;22982;42.848;25.468;2022-12-07T06:17:37;96153.59;;;4.59;100.00
37068;BME280;22982;42.848;25.468;2022-12-07T06:22:39;96146.31;;;4.68;100.00
37068;BME280;22982;42.848;25.468;2022-12-07T06:27:42;96159.53;;;4.39;100.00
37068;BME280;22982;42.848;25.468;2022-12-07T06:32:44;96153.69;;;4.78;100.00
37068;BME280;22982;42.848;25.468;2022-12-07T06:37:46;96161.91;;;4.68;100.00
37068;BME280;22982;42.848;25.468;2022-12-07T06:42:48;96150.13;;;5.03;100.00
37068;BME280;22982;42.848;25.468;2022-12-07T06:47:51;96162.28;;;5.03;100.00
37068;BME280;22982;42.848;25.468;2022-12-07T06:52:53;96170.66;;;5.09;100.00
37068;BME280;22982;42.848;25.468;2022-12-07T06:57:55;96163.69;;;5.32;100.00
37068;BME280;22982;42.848;25.468;2022-12-07T07:02:57;96162.16;;;5.28;100.00
37068;BME280;22982;42.848;25.468;2022-12-07T07:08:00;96168.66;;;5.59;100.00
37068;BME280;22982;42.848;25.468;2022-12-07T07:13:22;96175.97;;;5.71;100.00
37068;BME280;22982;42.848;25.468;2022-12-07T07:18:25;96153.84;;;5.61;100.00
37068;BME280;22982;42.848;25.468;2022-12-07T07:23:28;96164.75;;;5.89;100.00
37068;BME280;22982;42.848;25.468;2022-12-07T07:28:30;96135.63;;;6.21;100.00
37068;BME280;22982;42.848;25.468;2022-12-07T07:33:32;96141.03;;;7.09;100.00
37068;BME280;22982;42.848;25.468;2022-12-07T07:38:34;96161.97;;;8.46;100.00
37068;BME280;22982;42.848;25.468;2022-12-07T07:43:37;96151.09;;;9.78;91.48
37068;BME280;22982;42.848;25.468;2022-12-07T07:48:39;96166.56;;;10.83;84.54
37068;BME280;22982;42.848;25.468;2022-12-07T07:53:41;96148.06;;;10.72;82.77
37068;BME280;22982;42.848;25.468;2022-12-07T07:58:43;96154.50;;;9.94;86.17
37068;BME280;22982;42.848;25.468;2022-12-07T08:03:48;96168.19;;;9.69;88.51
37068;BME280;22982;42.848;25.468;2022-12-07T08:08:51;96151.53;;;9.10;90.93
37068;BME280;22982;42.848;25.468;2022-12-07T08:13:53;96174.03;;;8.49;96.61
37068;BME280;22982;42.848;25.468;2022-12-07T08:18:56;96153.16;;;8.96;95.28
37068;BME280;22982;42.848;25.468;2022-12-07T08:23:58;96131.88;;;9.49;91.76
37068;BME280;22982;42.848;25.468;2022-12-07T08:29:00;96134.88;;;10.30;85.57
37068;BME280;22982;42.848;25.468;2022-12-07T08:34:03;96136.50;;;11.16;81.67
37068;BME280;22982;42.848;25.468;2022-12-07T08:39:05;96112.72;;;12.23;76.55
37068;BME280;22982;42.848;25.468;2022-12-07T08:44:28;96103.78;;;12.76;73.01
37068;BME280;22982;42.848;25.468;2022-12-07T08:49:37;96111.25;;;13.54;69.52
37068;BME280;22982;42.848;25.468;2022-12-07T08:54:41;96084.28;;;14.09;65.93
37068;BME280;22982;42.848;25.468;2022-12-07T08:59:43;96094.00;;;14.65;62.95
37068;BME280;22982;42.848;25.468;2022-12-07T09:04:46;96086.09;;;15.52;56.73
37068;BME280;22982;42.848;25.468;2022-12-07T09:09:48;96069.06;;;16.39;53.22
37068;BME280;22982;42.848;25.468;2022-12-07T09:14:50;96054.63;;;15.70;53.82
37068;BME280;22982;42.848;25.468;2022-12-07T09:19:52;96047.97;;;15.97;52.89
37068;BME280;22982;42.848;25.468;2022-12-07T09:24:54;96049.41;;;16.01;53.03
37068;BME280;22982;42.848;25.468;2022-12-07T09:29:56;96032.91;;;15.87;53.23
37068;BME280;22982;42.848;25.468;2022-12-07T09:34:59;96009.38;;;16.15;52.14
37068;BME280;22982;42.848;25.468;2022-12-07T09:40:02;96016.31;;;15.64;54.67
37068;BME280;22982;42.848;25.468;2022-12-07T09:45:10;96045.91;;;14.72;59.04
37068;BME280;22982;42.848;25.468;2022-12-07T09:50:21;96023.38;;;13.78;65.20
37068;BME280;22982;42.848;25.468;2022-12-07T09:55:27;96017.41;;;13.87;63.91
37068;BME280;22982;42.848;25.468;2022-12-07T10:00:30;96023.00;;;13.49;65.47
37068;BME280;22982;42.848;25.468;2022-12-07T10:05:39;96013.16;;;13.51;64.88
37068;BME280;22982;42.848;25.468;2022-12-07T10:10:42;96019.38;;;13.38;65.45
37068;BME280;22982;42.848;25.468;2022-12-07T10:15:52;96019.53;;;13.48;65.53
37068;BME280;22982;42.848;25.468;2022-12-07T10:26:30;96014.16;;;13.26;66.68
37068;BME280;22982;42.848;25.468;2022-12-07T10:31:38;95991.72;;;14.34;62.08
37068;BME280;22982;42.848;25.468;2022-12-07T10:36:41;95986.69;;;14.43;60.38
37068;BME280;22982;42.848;25.468;2022-12-07T10:42:00;95992.81;;;14.32;61.56
37068;BME280;22982;42.848;25.468;2022-12-07T10:57:21;95976.91;;;14.22;60.61
37068;BME280;22982;42.848;25.468;2022-12-07T11:13:22;95933.47;;;13.13;64.97
37068;BME280;22982;42.848;25.468;2022-12-07T11:18:44;95961.50;;;12.55;69.11
37068;BME280;22982;42.848;25.468;2022-12-07T11:24:05;95945.44;;;12.47;70.30
37068;BME280;22982;42.848;25.468;2022-12-07T11:29:37;95948.41;;;12.18;70.92
37068;BME280;22982;42.848;25.468;2022-12-07T11:40:20;95925.84;;;13.21;68.11
37068;BME280;22982;42.848;25.468;2022-12-07T11:45:35;95906.38;;;13.35;66.27
37068;BME280;22982;42.848;25.468;2022-12-07T11:50:45;95908.16;;;13.35;66.35
37068;BME280;22982;42.848;25.468;2022-12-07T11:56:08;95906.72;;;13.31;65.31
37068;BME280;22982;42.848;25.468;2022-12-07T12:06:42;95910.53;;;13.27;67.04
37068;BME280;22982;42.848;25.468;2022-12-07T12:33:48;95876.53;;;13.01;69.35
37068;BME280;22982;42.848;25.468;2022-12-07T12:39:07;95887.16;;;13.11;70.18
37068;BME280;22982;42.848;25.468;2022-12-07T12:54:28;95881.00;;;12.41;73.79
37068;BME280;22982;42.848;25.468;2022-12-07T12:59:33;95881.53;;;12.22;75.09
37068;BME280;22982;42.848;25.468;2022-12-07T13:10:42;95872.31;;;11.66;79.67
37068;BME280;22982;42.848;25.468;2022-12-07T13:15:52;95881.16;;;11.53;83.84
37068;BME280;22982;42.848;25.468;2022-12-07T13:21:39;95883.31;;;11.35;83.61
37068;BME280;22982;42.848;25.468;2022-12-07T13:31:55;95888.16;;;11.15;83.83
37068;BME280;22982;42.848;25.468;2022-12-07T13:47:43;95896.41;;;10.70;90.11
37068;BME280;22982;42.848;25.468;2022-12-07T13:52:49;95888.69;;;10.42;91.48
37068;BME280;22982;42.848;25.468;2022-12-07T13:57:52;95879.25;;;10.39;93.28
37068;BME280;22982;42.848;25.468;2022-12-07T14:03:04;95894.00;;;10.13;96.12
37068;BME280;22982;42.848;25.468;2022-12-07T14:08:29;95881.22;;;10.08;97.17
37068;BME280;22982;42.848;25.468;2022-12-07T14:19:04;95885.41;;;9.84;98.81
37068;BME280;22982;42.848;25.468;2022-12-07T14:24:11;95890.69;;;9.55;100.00
37068;BME280;22982;42.848;25.468;2022-12-07T14:29:33;95895.19;;;9.53;96.30
37068;BME280;22982;42.848;25.468;2022-12-07T14:34:35;95906.81;;;9.34;98.78
37068;BME280;22982;42.848;25.468;2022-12-07T14:39:37;95899.31;;;9.28;100.00
37068;BME280;22982;42.848;25.468;2022-12-07T14:44:40;95904.19;;;9.20;100.00
37068;BME280;22982;42.848;25.468;2022-12-07T14:49:42;95909.31;;;8.62;99.99
37068;BME280;22982;42.848;25.468;2022-12-07T14:54:44;95895.19;;;8.51;100.00
37068;BME280;22982;42.848;25.468;2022-12-07T14:59:46;95906.53;;;8.19;100.00
37068;BME280;22982;42.848;25.468;2022-12-07T15:04:48;95899.88;;;8.14;100.00
37068;BME280;22982;42.848;25.468;2022-12-07T15:09:51;95907.97;;;8.09;100.00
37068;BME280;22982;42.848;25.468;2022-12-07T15:14:53;95920.13;;;7.94;100.00
37068;BME280;22982;42.848;25.468;2022-12-07T15:19:55;95913.38;;;7.58;100.00
37068;BME280;22982;42.848;25.468;2022-12-07T15:24:58;95906.97;;;7.32;100.00
37068;BME280;22982;42.848;25.468;2022-12-07T15:30:01;95892.84;;;6.35;100.00
37068;BME280;22982;42.848;25.468;2022-12-07T15:35:04;95908.28;;;6.38;100.00
37068;BME280;22982;42.848;25.468;2022-12-07T15:40:07;95913.88;;;6.30;100.00
37068;BME280;22982;42.848;25.468;2022-12-07T15:45:09;95909.09;;;6.03;100.00
37068;BME280;22982;42.848;25.468;2022-12-07T15:50:14;95921.97;;;6.06;100.00
37068;BME280;22982;42.848;25.468;2022-12-07T15:55:17;95899.59;;;5.83;100.00
37068;BME280;22982;42.848;25.468;2022-12-07T16:00:20;95918.41;;;5.71;100.00
37068;BME280;22982;42.848;25.468;2022-12-07T16:05:22;95905.69;;;5.65;100.00
37068;BME280;22982;42.848;25.468;2022-12-07T16:10:24;95922.69;;;5.34;100.00
37068;BME280;22982;42.848;25.468;2022-12-07T16:15:26;95923.94;;;5.25;100.00
37068;BME280;22982;42.848;25.468;2022-12-07T16:20:28;95929.06;;;4.87;100.00
37068;BME280;22982;42.848;25.468;2022-12-07T16:25:31;95931.63;;;4.68;100.00
37068;BME280;22982;42.848;25.468;2022-12-07T16:30:33;95929.66;;;4.53;100.00
37068;BME280;22982;42.848;25.468;2022-12-07T16:35:38;95934.75;;;4.56;100.00
37068;BME280;22982;42.848;25.468;2022-12-07T16:40:43;95964.78;;;4.82;100.00
37068;BME280;22982;42.848;25.468;2022-12-07T16:45:46;95979.06;;;7.33;100.00
37068;BME280;22982;42.848;25.468;2022-12-07T16:50:49;95971.47;;;7.28;100.00
37068;BME280;22982;42.848;25.468;2022-12-07T16:55:52;95971.78;;;6.35;100.00
37068;BME280;22982;42.848;25.468;2022-12-07T17:00:54;95937.66;;;6.76;100.00
37068;BME280;22982;42.848;25.468;2022-12-07T17:05:56;95982.91;;;7.26;100.00
37068;BME280;22982;42.848;25.468;2022-12-07T17:10:59;95993.75;;;7.52;100.00
37068;BME280;22982;42.848;25.468;2022-12-07T17:16:03;96000.19;;;6.76;100.00
37068;BME280;22982;42.848;25.468;2022-12-07T17:21:08;95984.84;;;5.78;100.00
37068;BME280;22982;42.848;25.468;2022-12-07T17:26:16;95980.44;;;5.22;100.00
37068;BME280;22982;42.848;25.468;2022-12-07T17:31:21;95993.06;;;5.10;100.00
37068;BME280;22982;42.848;25.468;2022-12-07T17:36:27;96002.09;;;6.90;100.00
37068;BME280;22982;42.848;25.468;2022-12-07T17:41:29;96003.88;;;6.36;100.00
37068;BME280;22982;42.848;25.468;2022-12-07T17:46:51;95996.38;;;4.30;100.00
37068;BME280;22982;42.848;25.468;2022-12-07T17:51:59;95979.72;;;4.14;100.00
37068;BME280;22982;42.848;25.468;2022-12-07T17:57:20;95964.91;;;3.48;100.00
37068;BME280;22982;42.848;25.468;2022-12-07T18:02:22;95995.63;;;3.59;100.00
37068;BME280;22982;42.848;25.468;2022-12-07T18:07:24;95991.38;;;3.58;100.00
37068;BME280;22982;42.848;25.468;2022-12-07T18:12:27;95994.13;;;3.53;100.00
37068;BME280;22982;42.848;25.468;2022-12-07T18:17:29;95983.13;;;3.47;100.00
37068;BME280;22982;42.848;25.468;2022-12-07T18:22:31;95975.00;;;3.32;100.00
37068;BME280;22982;42.848;25.468;2022-12-07T18:27:34;95989.47;;;3.38;100.00
37068;BME280;22982;42.848;25.468;2022-12-07T18:32:36;95993.31;;;3.28;100.00
37068;BME280;22982;42.848;25.468;2022-12-07T18:37:39;95999.94;;;3.11;100.00
37068;BME280;22982;42.848;25.468;2022-12-07T18:42:42;95990.47;;;3.10;100.00
37068;BME280;22982;42.848;25.468;2022-12-07T18:47:44;95989.09;;;3.00;100.00
37068;BME280;22982;42.848;25.468;2022-12-07T18:52:46;95987.06;;;2.84;100.00
37068;BME280;22982;42.848;25.468;2022-12-07T18:57:49;95985.72;;;2.98;100.00
37068;BME280;22982;42.848;25.468;2022-12-07T19:02:52;95998.88;;;2.66;100.00
37068;BME280;22982;42.848;25.468;2022-12-07T19:07:54;96002.13;;;2.73;100.00
37068;BME280;22982;42.848;25.468;2022-12-07T19:12:57;96013.53;;;2.67;100.00
37068;BME280;22982;42.848;25.468;2022-12-07T19:17:59;95995.47;;;2.39;100.00
37068;BME280;22982;42.848;25.468;2022-12-07T19:23:01;95989.28;;;2.43;100.00
37068;BME280;22982;42.848;25.468;2022-12-07T19:28:03;96006.59;;;2.41;100.00
37068;BME280;22982;42.848;25.468;2022-12-07T19:33:06;95994.75;;;2.34;100.00
37068;BME280;22982;42.848;25.468;2022-12-07T19:38:08;95998.72;;;2.18;100.00
37068;BME280;22982;42.848;25.468;2022-12-07T19:43:10;96014.69;;;2.30;100.00
37068;BME280;22982;42.848;25.468;2022-12-07T19:48:12;96006.41;;;2.21;100.00
37068;BME280;22982;42.848;25.468;2022-12-07T19:53:15;96021.00;;;2.22;100.00
37068;BME280;22982;42.848;25.468;2022-12-07T19:58:18;96022.00;;;1.89;100.00
37068;BME280;22982;42.848;25.468;2022-12-07T20:03:20;96022.31;;;1.79;100.00
37068;BME280;22982;42.848;25.468;2022-12-07T20:08:23;96039.16;;;1.62;100.00
37068;BME280;22982;42.848;25.468;2022-12-07T20:13:26;96032.66;;;1.79;100.00
37068;BME280;22982;42.848;25.468;2022-12-07T20:18:34;96029.19;;;1.80;100.00
37068;BME280;22982;42.848;25.468;2022-12-07T20:23:36;96039.44;;;1.53;100.00
37068;BME280;22982;42.848;25.468;2022-12-07T20:28:39;96051.16;;;1.65;100.00
37068;BME280;22982;42.848;25.468;2022-12-07T20:33:43;96026.28;;;1.31;100.00
37068;BME280;22982;42.848;25.468;2022-12-07T20:38:48;96040.56;;;1.11;100.00
37068;BME280;22982;42.848;25.468;2022-12-07T20:43:50;96056.75;;;1.18;100.00
37068;BME280;22982;42.848;25.468;2022-12-07T20:48:53;96060.22;;;1.17;100.00
37068;BME280;22982;42.848;25.468;2022-12-07T20:53:56;96055.00;;;1.19;100.00
37068;BME280;22982;42.848;25.468;2022-12-07T20:59:01;96066.91;;;0.91;100.00
37068;BME280;22982;42.848;25.468;2022-12-07T21:04:03;96055.63;;;0.95;100.00
37068;BME280;22982;42.848;25.468;2022-12-07T21:09:06;96061.59;;;0.98;100.00
37068;BME280;22982;42.848;25.468;2022-12-07T21:14:08;96078.22;;;0.87;100.00
37068;BME280;22982;42.848;25.468;2022-12-07T21:19:10;96067.94;;;1.19;100.00
37068;BME280;22982;42.848;25.468;2022-12-07T21:24:12;96079.56;;;1.02;100.00
37068;BME280;22982;42.848;25.468;2022-12-07T21:29:14;96063.28;;;0.99;100.00
37068;BME280;22982;42.848;25.468;2022-12-07T21:34:17;96057.41;;;0.93;100.00
37068;BME280;22982;42.848;25.468;2022-12-07T21:39:19;96075.97;;;1.08;100.00
37068;BME280;22982;42.848;25.468;2022-12-07T21:44:21;96078.28;;;1.17;100.00
37068;BME280;22982;42.848;25.468;2022-12-07T21:49:23;96086.34;;;1.05;100.00
37068;BME280;22982;42.848;25.468;2022-12-07T21:54:26;96092.44;;;1.04;100.00
37068;BME280;22982;42.848;25.468;2022-12-07T21:59:28;96082.16;;;1.01;100.00
37068;BME280;22982;42.848;25.468;2022-12-07T22:04:30;96080.09;;;0.81;100.00
37068;BME280;22982;42.848;25.468;2022-12-07T22:09:32;96081.59;;;0.89;100.00
37068;BME280;22982;42.848;25.468;2022-12-07T22:14:34;96079.47;;;0.71;100.00
37068;BME280;22982;42.848;25.468;2022-12-07T22:19:55;96077.78;;;0.70;100.00
37068;BME280;22982;42.848;25.468;2022-12-07T22:24:58;96078.44;;;0.78;100.00
37068;BME280;22982;42.848;25.468;2022-12-07T22:30:00;96080.78;;;0.87;100.00
37068;BME280;22982;42.848;25.468;2022-12-07T22:35:03;96053.06;;;0.60;100.00
37068;BME280;22982;42.848;25.468;2022-12-07T22:40:06;96065.25;;;0.54;100.00
37068;BME280;22982;42.848;25.468;2022-12-07T22:45:09;96064.03;;;0.69;100.00
37068;BME280;22982;42.848;25.468;2022-12-07T22:50:11;96065.31;;;0.51;100.00
37068;BME280;22982;42.848;25.468;2022-12-07T22:55:13;96076.69;;;0.44;100.00
37068;BME280;22982;42.848;25.468;2022-12-07T23:00:15;96073.81;;;0.56;100.00
37068;BME280;22982;42.848;25.468;2022-12-07T23:05:19;96078.44;;;0.42;100.00
37068;BME280;22982;42.848;25.468;2022-12-07T23:10:21;96089.38;;;0.52;100.00
37068;BME280;22982;42.848;25.468;2022-12-07T23:15:23;96079.09;;;0.50;100.00
37068;BME280;22982;42.848;25.468;2022-12-07T23:20:25;96076.56;;;0.49;100.00
37068;BME280;22982;42.848;25.468;2022-12-07T23:25:28;96082.13;;;0.32;100.00
37068;BME280;22982;42.848;25.468;2022-12-07T23:30:30;96083.16;;;0.23;100.00
37068;BME280;22982;42.848;25.468;2022-12-07T23:35:32;96070.91;;;-0.05;100.00
37068;BME280;22982;42.848;25.468;2022-12-07T23:40:35;96096.47;;;0.05;100.00
37068;BME280;22982;42.848;25.468;2022-12-07T23:45:37;96100.38;;;0.23;100.00
37068;BME280;22982;42.848;25.468;2022-12-07T23:50:40;96094.22;;;0.28;100.00
37068;BME280;22982;42.848;25.468;2022-12-07T23:55:45;96106.81;;;0.42;100.00
